»·PEaware :: N145BE KSAN-KLAS

N145BE :: KSAN-KLAS

FLIGHT INFORMATION

Flight Status: Arrived
Operator: Privately registered:
United States
More flights under this callsign
Pilot: Santiago S. (22950)
Aircraft: BOEING 737-800
(B738)
More flights by this aircraft type
Origin: KSAN San Diego Intl-Lindbergh
United States
Destination: KLAS McCarran Intl
United States
More flights between these airports :: More routes between these airports
Route: ++ DAG MISEN KEPEC6
File this flight plan on PilotEdge
Remarks:
Altitude:
(Current/Filed)
250ft
Speed:
(Current/Filed)
420kts
Departed: 14-Mar-19 07:55 PM
Arrived: 14-Mar-19 09:02 PM
Distance/Time
Traveled:
225nm/1:07
Distance/Time
To Go:
Arrived

Flight Plot

Page will automatically refresh every two minutes.

Flight plan parsing failed; only flown route is shown


Map Options




Map Legend


Flown Route
Filed Route
Departure Airport
Arrival Airport
Navaid (VOR, NDB)
Fix

Horizontal Profiles

Position Reports

Time Latitude Longitude Heading Altitude Ground
Speed
14-Mar-19 19:32 32.733215 -117.196882 134 18ft 0kts
14-Mar-19 19:33 32.733215 -117.196882 134 18ft 0kts
14-Mar-19 19:34 32.733215 -117.196882 134 18ft 0kts
14-Mar-19 19:35 32.733215 -117.196882 134 18ft 0kts
14-Mar-19 19:36 32.733215 -117.196882 134 18ft 0kts
14-Mar-19 19:37 32.733215 -117.196882 134 18ft 0kts
14-Mar-19 19:38 32.733215 -117.196882 134 18ft 0kts
14-Mar-19 19:39 32.733215 -117.196882 134 18ft 0kts
14-Mar-19 19:40 32.733215 -117.196882 134 18ft 0kts
14-Mar-19 19:41 32.733215 -117.196882 134 18ft 0kts
14-Mar-19 19:42 32.733215 -117.196882 134 18ft 0kts
14-Mar-19 19:43 32.733215 -117.196882 134 18ft 0kts
14-Mar-19 19:44 32.733215 -117.196882 134 18ft 0kts
14-Mar-19 19:45 32.733215 -117.196882 134 18ft 0kts
14-Mar-19 19:46 32.733259 -117.196934 134 18ft 4kts
14-Mar-19 19:47 32.733509 -117.197233 131 17ft 0kts
14-Mar-19 19:48 32.733713 -117.196665 48 17ft 10kts
14-Mar-19 19:49 32.733801 -117.194783 104 21ft 10kts
14-Mar-19 19:50 32.731606 -117.185711 105 17ft 22kts
14-Mar-19 19:51 32.730361 -117.180643 106 17ft 12kts
14-Mar-19 19:52 32.729505 -117.177025 89 22ft 0kts
14-Mar-19 19:53 32.729505 -117.177006 89 22ft 0kts
14-Mar-19 19:54 32.731006 -117.179059 287 21ft 70kts
14-Mar-19 19:55 32.745892 -117.229437 307 2162ft 206kts
14-Mar-19 19:56 32.787226 -117.292041 305 6013ft 262kts
14-Mar-19 19:57 32.829389 -117.365203 306 10361ft 282kts
14-Mar-19 19:58 32.879028 -117.438959 326 14395ft 293kts
14-Mar-19 19:59 32.949816 -117.489335 330 14966ft 295kts
14-Mar-19 20:00 33.004650 -117.560745 312 14966ft 298kts
14-Mar-19 20:01 33.057125 -117.638506 307 15874ft 306kts
14-Mar-19 20:02 33.106980 -117.722439 309 19452ft 318kts
14-Mar-19 20:03 33.162478 -117.807058 308 22626ft 331kts
14-Mar-19 20:04 33.205567 -117.905303 292 23184ft 335kts
14-Mar-19 20:05 33.240014 -118.009158 292 23199ft 336kts
14-Mar-19 20:06 33.274558 -118.113255 295 23397ft 344kts
14-Mar-19 20:07 33.344570 -118.188265 340 25217ft 371kts
14-Mar-19 20:08 33.454078 -118.179937 21 25203ft 436kts
14-Mar-19 20:09 33.554696 -118.089042 38 25183ft 460kts
14-Mar-19 20:10 33.650674 -117.988239 38 25182ft 460kts
14-Mar-19 20:11 33.746670 -117.887102 38 25182ft 460kts
14-Mar-19 20:12 33.842863 -117.785449 38 25182ft 459kts
14-Mar-19 20:13 33.939045 -117.683483 38 25190ft 460kts
14-Mar-19 20:14 34.034823 -117.581625 38 25200ft 460kts
14-Mar-19 20:15 34.130576 -117.479474 38 25202ft 460kts
14-Mar-19 20:16 34.226397 -117.376927 38 25203ft 460kts
14-Mar-19 20:17 34.322336 -117.273928 39 25140ft 460kts
14-Mar-19 20:18 34.417725 -117.171195 39 25141ft 460kts
14-Mar-19 20:19 34.513166 -117.068080 39 25111ft 461kts
14-Mar-19 20:20 34.608929 -116.964300 39 24286ft 473kts
14-Mar-19 20:21 34.704052 -116.860830 39 24292ft 455kts
14-Mar-19 20:22 34.798312 -116.758007 39 24325ft 454kts
14-Mar-19 20:23 34.892781 -116.654631 39 24498ft 456kts
14-Mar-19 20:24 34.983215 -116.553507 42 24299ft 422kts
14-Mar-19 20:25 35.068138 -116.447285 43 24364ft 447kts
14-Mar-19 20:26 35.153780 -116.339952 43 24593ft 407kts
14-Mar-19 20:27 35.229185 -116.245255 43 24703ft 383kts
14-Mar-19 20:28 35.303513 -116.151777 43 24454ft 380kts
14-Mar-19 20:29 35.377305 -116.058744 43 24466ft 383kts
14-Mar-19 20:30 35.450744 -115.965860 43 23537ft 374kts
14-Mar-19 20:31 35.521082 -115.876643 44 20441ft 355kts
14-Mar-19 20:32 35.587776 -115.791830 44 17368ft 336kts
14-Mar-19 20:33 35.650489 -115.711897 45 14985ft 303kts
14-Mar-19 20:34 35.710213 -115.635655 45 13650ft 351kts
14-Mar-19 20:35 35.795405 -115.577128 11 13647ft 327kts
14-Mar-19 20:36 35.890325 -115.568520 3 13416ft 350kts
14-Mar-19 20:37 35.977728 -115.519269 48 12975ft 359kts
14-Mar-19 20:38 36.016431 -115.421488 67 12123ft 281kts
14-Mar-19 20:39 36.028934 -115.329951 94 10754ft 276kts
14-Mar-19 20:40 36.021400 -115.235182 93 9243ft 276kts
14-Mar-19 20:41 36.014966 -115.145751 93 9007ft 245kts
14-Mar-19 20:42 36.009469 -115.065010 92 8460ft 234kts
14-Mar-19 20:43 36.004758 -114.986207 92 8010ft 228kts
14-Mar-19 20:44 36.000061 -114.908040 92 8008ft 227kts
14-Mar-19 20:45 36.004231 -114.836081 47 7845ft 199kts
14-Mar-19 20:46 36.051681 -114.796584 21 6431ft 214kts
14-Mar-19 20:47 36.100365 -114.829672 301 4964ft 230kts
14-Mar-19 20:48 36.131743 -114.897987 301 4005ft 211kts
14-Mar-19 20:49 36.170120 -114.930371 22 4523ft 178kts
14-Mar-19 20:50 36.213247 -114.899891 31 5016ft 178kts
14-Mar-19 20:51 36.246862 -114.853714 92 5023ft 199kts
14-Mar-19 20:52 36.203462 -114.819378 161 5011ft 186kts
14-Mar-19 20:53 36.153603 -114.800999 161 5012ft 187kts
14-Mar-19 20:54 36.103403 -114.790348 212 5031ft 190kts
14-Mar-19 20:55 36.080691 -114.848361 251 5011ft 189kts
14-Mar-19 20:56 36.073105 -114.911562 274 5012ft 187kts
14-Mar-19 20:57 36.073667 -114.974478 271 4492ft 163kts
14-Mar-19 20:58 36.073720 -115.025249 272 3687ft 142kts
14-Mar-19 20:59 36.073699 -115.073612 272 2922ft 140kts
14-Mar-19 21:00 36.073593 -115.121815 271 2166ft 141kts
14-Mar-19 21:01 36.073600 -115.150910 265 2124ft 30kts
14-Mar-19 21:02 36.074433 -115.154663 299 2137ft 0kts
14-Mar-19 21:03 36.076009 -115.156994 316 2143ft 26kts
14-Mar-19 21:04 36.080766 -115.158255 0 2135ft 0kts
14-Mar-19 21:05 36.082605 -115.158155 6 2131ft 23kts
14-Mar-19 21:06 36.087707 -115.155433 84 2109ft 22kts
14-Mar-19 21:07 36.087067 -115.153269 163 2103ft 0kts

Navigation Log

Ident Type
Flight plan parsing failed, navigation log unavailable